sensor_id;sensor_type;location;lat;lon;timestamp;P1;durP1;ratioP1;P2;durP2;ratioP2
78209;SDS011;67485;48.816;9.930;2024-02-21T00:00:52;12.27;;;4.90;;
78209;SDS011;67485;48.816;9.930;2024-02-21T00:03:18;12.15;;;4.20;;
78209;SDS011;67485;48.816;9.930;2024-02-21T00:05:44;13.70;;;3.80;;
78209;SDS011;67485;48.816;9.930;2024-02-21T00:08:10;12.10;;;3.50;;
78209;SDS011;67485;48.816;9.930;2024-02-21T00:10:36;9.83;;;3.37;;
78209;SDS011;67485;48.816;9.930;2024-02-21T00:13:01;11.85;;;2.83;;
78209;SDS011;67485;48.816;9.930;2024-02-21T00:15:27;7.73;;;2.93;;
78209;SDS011;67485;48.816;9.930;2024-02-21T00:17:53;7.75;;;2.95;;
78209;SDS011;67485;48.816;9.930;2024-02-21T00:20:18;7.97;;;3.07;;
78209;SDS011;67485;48.816;9.930;2024-02-21T00:22:45;12.25;;;3.10;;
78209;SDS011;67485;48.816;9.930;2024-02-21T00:25:11;7.35;;;2.70;;
78209;SDS011;67485;48.816;9.930;2024-02-21T00:27:36;8.13;;;2.90;;
78209;SDS011;67485;48.816;9.930;2024-02-21T00:30:02;11.13;;;3.03;;
78209;SDS011;67485;48.816;9.930;2024-02-21T00:32:29;6.97;;;2.40;;
78209;SDS011;67485;48.816;9.930;2024-02-21T00:34:54;8.60;;;2.50;;
78209;SDS011;67485;48.816;9.930;2024-02-21T00:37:20;10.80;;;2.70;;
78209;SDS011;67485;48.816;9.930;2024-02-21T00:39:46;9.68;;;2.90;;
78209;SDS011;67485;48.816;9.930;2024-02-21T00:42:11;10.43;;;2.73;;
78209;SDS011;67485;48.816;9.930;2024-02-21T00:44:37;8.45;;;2.55;;
78209;SDS011;67485;48.816;9.930;2024-02-21T00:47:03;10.83;;;2.63;;
78209;SDS011;67485;48.816;9.930;2024-02-21T00:49:28;7.70;;;2.63;;
78209;SDS011;67485;48.816;9.930;2024-02-21T00:51:54;8.93;;;2.40;;
78209;SDS011;67485;48.816;9.930;2024-02-21T00:54:20;7.45;;;2.30;;
78209;SDS011;67485;48.816;9.930;2024-02-21T00:56:46;8.50;;;2.40;;
78209;SDS011;67485;48.816;9.930;2024-02-21T00:59:12;9.18;;;2.67;;
78209;SDS011;67485;48.816;9.930;2024-02-21T01:01:38;12.37;;;2.70;;
78209;SDS011;67485;48.816;9.930;2024-02-21T01:04:07;11.38;;;2.47;;
78209;SDS011;67485;48.816;9.930;2024-02-21T01:06:32;10.23;;;2.40;;
78209;SDS011;67485;48.816;9.930;2024-02-21T01:08:59;7.85;;;2.17;;
78209;SDS011;67485;48.816;9.930;2024-02-21T01:11:24;11.80;;;2.60;;
78209;SDS011;67485;48.816;9.930;2024-02-21T01:13:50;7.13;;;1.83;;
78209;SDS011;67485;48.816;9.930;2024-02-21T01:16:16;12.00;;;2.63;;
78209;SDS011;67485;48.816;9.930;2024-02-21T01:18:41;10.40;;;2.88;;
78209;SDS011;67485;48.816;9.930;2024-02-21T01:21:07;8.33;;;2.60;;
78209;SDS011;67485;48.816;9.930;2024-02-21T01:23:34;7.43;;;2.20;;
78209;SDS011;67485;48.816;9.930;2024-02-21T01:26:00;8.10;;;2.20;;
78209;SDS011;67485;48.816;9.930;2024-02-21T01:28:26;10.20;;;2.53;;
78209;SDS011;67485;48.816;9.930;2024-02-21T01:30:52;11.17;;;2.40;;
78209;SDS011;67485;48.816;9.930;2024-02-21T01:33:17;7.87;;;2.03;;
78209;SDS011;67485;48.816;9.930;2024-02-21T01:35:44;5.80;;;1.80;;
78209;SDS011;67485;48.816;9.930;2024-02-21T01:38:12;10.25;;;2.30;;
78209;SDS011;67485;48.816;9.930;2024-02-21T01:40:38;8.13;;;1.67;;
78209;SDS011;67485;48.816;9.930;2024-02-21T01:43:14;8.23;;;2.77;;
78209;SDS011;67485;48.816;9.930;2024-02-21T01:45:41;6.68;;;1.90;;
78209;SDS011;67485;48.816;9.930;2024-02-21T01:48:07;6.63;;;1.60;;
78209;SDS011;67485;48.816;9.930;2024-02-21T01:50:32;8.33;;;1.90;;
78209;SDS011;67485;48.816;9.930;2024-02-21T01:52:58;6.28;;;1.55;;
78209;SDS011;67485;48.816;9.930;2024-02-21T01:55:25;6.38;;;1.77;;
78209;SDS011;67485;48.816;9.930;2024-02-21T01:57:51;6.50;;;1.73;;
78209;SDS011;67485;48.816;9.930;2024-02-21T02:00:17;5.97;;;1.50;;
78209;SDS011;67485;48.816;9.930;2024-02-21T02:02:42;7.78;;;1.88;;
78209;SDS011;67485;48.816;9.930;2024-02-21T02:05:10;7.07;;;1.70;;
78209;SDS011;67485;48.816;9.930;2024-02-21T02:07:36;8.05;;;1.90;;
78209;SDS011;67485;48.816;9.930;2024-02-21T02:10:02;7.88;;;1.83;;
78209;SDS011;67485;48.816;9.930;2024-02-21T02:12:28;8.20;;;1.93;;
78209;SDS011;67485;48.816;9.930;2024-02-21T02:15:00;8.02;;;1.73;;
78209;SDS011;67485;48.816;9.930;2024-02-21T02:17:26;8.20;;;1.70;;
78209;SDS011;67485;48.816;9.930;2024-02-21T02:19:51;6.27;;;1.50;;
78209;SDS011;67485;48.816;9.930;2024-02-21T02:22:19;6.87;;;1.70;;
78209;SDS011;67485;48.816;9.930;2024-02-21T02:24:57;5.30;;;1.43;;
78209;SDS011;67485;48.816;9.930;2024-02-21T02:27:23;6.53;;;1.58;;
78209;SDS011;67485;48.816;9.930;2024-02-21T02:29:49;6.45;;;1.60;;
78209;SDS011;67485;48.816;9.930;2024-02-21T02:32:16;8.20;;;1.85;;
78209;SDS011;67485;48.816;9.930;2024-02-21T02:34:41;8.02;;;1.77;;
78209;SDS011;67485;48.816;9.930;2024-02-21T02:37:07;6.07;;;1.70;;
78209;SDS011;67485;48.816;9.930;2024-02-21T02:39:32;7.43;;;1.63;;
78209;SDS011;67485;48.816;9.930;2024-02-21T02:41:58;7.28;;;1.40;;
78209;SDS011;67485;48.816;9.930;2024-02-21T02:44:24;5.07;;;1.43;;
78209;SDS011;67485;48.816;9.930;2024-02-21T02:46:49;7.10;;;1.77;;
78209;SDS011;67485;48.816;9.930;2024-02-21T02:49:15;8.63;;;1.60;;
78209;SDS011;67485;48.816;9.930;2024-02-21T02:51:41;7.37;;;1.60;;
78209;SDS011;67485;48.816;9.930;2024-02-21T02:54:08;6.03;;;1.60;;
78209;SDS011;67485;48.816;9.930;2024-02-21T02:56:34;7.80;;;1.60;;
78209;SDS011;67485;48.816;9.930;2024-02-21T02:59:00;6.53;;;2.10;;
78209;SDS011;67485;48.816;9.930;2024-02-21T03:01:26;6.60;;;1.80;;
78209;SDS011;67485;48.816;9.930;2024-02-21T03:03:52;9.20;;;1.88;;
78209;SDS011;67485;48.816;9.930;2024-02-21T03:06:19;4.75;;;1.80;;
78209;SDS011;67485;48.816;9.930;2024-02-21T03:08:45;9.27;;;2.17;;
78209;SDS011;67485;48.816;9.930;2024-02-21T03:11:10;8.35;;;2.30;;
78209;SDS011;67485;48.816;9.930;2024-02-21T03:13:36;8.60;;;2.07;;
78209;SDS011;67485;48.816;9.930;2024-02-21T03:16:02;8.52;;;2.42;;
78209;SDS011;67485;48.816;9.930;2024-02-21T03:18:28;6.53;;;2.33;;
78209;SDS011;67485;48.816;9.930;2024-02-21T03:20:53;10.40;;;2.80;;
78209;SDS011;67485;48.816;9.930;2024-02-21T03:23:19;10.82;;;2.20;;
78209;SDS011;67485;48.816;9.930;2024-02-21T03:25:45;7.57;;;2.77;;
78209;SDS011;67485;48.816;9.930;2024-02-21T03:28:11;8.55;;;2.30;;
78209;SDS011;67485;48.816;9.930;2024-02-21T03:30:36;8.00;;;2.40;;
78209;SDS011;67485;48.816;9.930;2024-02-21T03:33:02;7.18;;;2.47;;
78209;SDS011;67485;48.816;9.930;2024-02-21T03:35:28;11.00;;;2.70;;
78209;SDS011;67485;48.816;9.930;2024-02-21T03:37:53;10.48;;;2.50;;
78209;SDS011;67485;48.816;9.930;2024-02-21T03:40:19;9.67;;;2.77;;
78209;SDS011;67485;48.816;9.930;2024-02-21T03:42:45;7.38;;;3.20;;
78209;SDS011;67485;48.816;9.930;2024-02-21T03:45:10;7.00;;;2.60;;
78209;SDS011;67485;48.816;9.930;2024-02-21T03:47:36;13.77;;;3.25;;
78209;SDS011;67485;48.816;9.930;2024-02-21T03:50:02;10.60;;;2.90;;
78209;SDS011;67485;48.816;9.930;2024-02-21T03:52:28;12.90;;;3.00;;
78209;SDS011;67485;48.816;9.930;2024-02-21T03:54:53;9.30;;;3.27;;
78209;SDS011;67485;48.816;9.930;2024-02-21T03:57:20;7.57;;;3.28;;
78209;SDS011;67485;48.816;9.930;2024-02-21T03:59:46;10.50;;;2.92;;
78209;SDS011;67485;48.816;9.930;2024-02-21T04:02:16;8.73;;;3.23;;
78209;SDS011;67485;48.816;9.930;2024-02-21T04:04:43;8.40;;;2.92;;
78209;SDS011;67485;48.816;9.930;2024-02-21T04:07:12;9.20;;;3.38;;
78209;SDS011;67485;48.816;9.930;2024-02-21T04:09:38;12.50;;;3.35;;
78209;SDS011;67485;48.816;9.930;2024-02-21T04:12:04;8.27;;;2.90;;
78209;SDS011;67485;48.816;9.930;2024-02-21T04:14:30;7.25;;;2.42;;
78209;SDS011;67485;48.816;9.930;2024-02-21T04:16:55;10.18;;;2.80;;
78209;SDS011;67485;48.816;9.930;2024-02-21T04:19:22;11.90;;;3.35;;
78209;SDS011;67485;48.816;9.930;2024-02-21T04:21:48;9.90;;;3.00;;
78209;SDS011;67485;48.816;9.930;2024-02-21T04:24:13;6.20;;;1.93;;
78209;SDS011;67485;48.816;9.930;2024-02-21T04:26:39;10.17;;;2.63;;
78209;SDS011;67485;48.816;9.930;2024-02-21T04:29:05;9.02;;;2.45;;
78209;SDS011;67485;48.816;9.930;2024-02-21T04:31:34;7.47;;;2.57;;
78209;SDS011;67485;48.816;9.930;2024-02-21T04:34:00;10.05;;;2.88;;
78209;SDS011;67485;48.816;9.930;2024-02-21T04:36:25;9.30;;;2.80;;
78209;SDS011;67485;48.816;9.930;2024-02-21T04:38:51;7.32;;;2.47;;
78209;SDS011;67485;48.816;9.930;2024-02-21T04:41:17;5.57;;;2.43;;
78209;SDS011;67485;48.816;9.930;2024-02-21T04:43:42;9.65;;;2.80;;
78209;SDS011;67485;48.816;9.930;2024-02-21T04:46:08;9.80;;;3.07;;
78209;SDS011;67485;48.816;9.930;2024-02-21T04:48:35;8.25;;;2.80;;
78209;SDS011;67485;48.816;9.930;2024-02-21T04:51:00;10.63;;;2.67;;
78209;SDS011;67485;48.816;9.930;2024-02-21T04:53:26;7.88;;;2.50;;
78209;SDS011;67485;48.816;9.930;2024-02-21T04:55:52;7.22;;;2.65;;
78209;SDS011;67485;48.816;9.930;2024-02-21T04:58:18;6.83;;;2.40;;
78209;SDS011;67485;48.816;9.930;2024-02-21T05:00:43;11.97;;;2.73;;
78209;SDS011;67485;48.816;9.930;2024-02-21T05:03:09;6.78;;;2.67;;
78209;SDS011;67485;48.816;9.930;2024-02-21T05:05:34;10.77;;;2.60;;
78209;SDS011;67485;48.816;9.930;2024-02-21T05:08:01;10.93;;;2.78;;
78209;SDS011;67485;48.816;9.930;2024-02-21T05:10:26;8.88;;;2.97;;
78209;SDS011;67485;48.816;9.930;2024-02-21T05:12:52;10.90;;;2.70;;
78209;SDS011;67485;48.816;9.930;2024-02-21T05:15:18;9.30;;;2.75;;
78209;SDS011;67485;48.816;9.930;2024-02-21T05:17:43;7.67;;;2.60;;
78209;SDS011;67485;48.816;9.930;2024-02-21T05:20:09;11.35;;;2.78;;
78209;SDS011;67485;48.816;9.930;2024-02-21T05:22:35;8.03;;;2.83;;
78209;SDS011;67485;48.816;9.930;2024-02-21T05:25:01;7.55;;;2.50;;
78209;SDS011;67485;48.816;9.930;2024-02-21T05:27:26;11.73;;;2.17;;
78209;SDS011;67485;48.816;9.930;2024-02-21T05:29:53;9.98;;;2.50;;
78209;SDS011;67485;48.816;9.930;2024-02-21T05:32:19;9.83;;;2.40;;
78209;SDS011;67485;48.816;9.930;2024-02-21T05:34:48;10.27;;;2.90;;
78209;SDS011;67485;48.816;9.930;2024-02-21T05:37:14;10.40;;;3.08;;
78209;SDS011;67485;48.816;9.930;2024-02-21T05:39:40;9.10;;;3.17;;
78209;SDS011;67485;48.816;9.930;2024-02-21T05:42:06;12.02;;;3.28;;
78209;SDS011;67485;48.816;9.930;2024-02-21T05:44:32;8.65;;;3.25;;
78209;SDS011;67485;48.816;9.930;2024-02-21T05:46:58;7.13;;;2.77;;
78209;SDS011;67485;48.816;9.930;2024-02-21T05:49:23;11.93;;;3.40;;
78209;SDS011;67485;48.816;9.930;2024-02-21T05:51:49;10.07;;;3.90;;
78209;SDS011;67485;48.816;9.930;2024-02-21T05:54:14;14.67;;;5.50;;
78209;SDS011;67485;48.816;9.930;2024-02-21T05:56:44;14.10;;;4.47;;
78209;SDS011;67485;48.816;9.930;2024-02-21T05:59:10;12.15;;;4.65;;
78209;SDS011;67485;48.816;9.930;2024-02-21T06:01:36;10.27;;;3.23;;
78209;SDS011;67485;48.816;9.930;2024-02-21T06:04:02;8.98;;;2.55;;
78209;SDS011;67485;48.816;9.930;2024-02-21T06:06:27;9.03;;;3.17;;
78209;SDS011;67485;48.816;9.930;2024-02-21T06:08:53;8.20;;;2.83;;
78209;SDS011;67485;48.816;9.930;2024-02-21T06:11:18;8.60;;;2.60;;
78209;SDS011;67485;48.816;9.930;2024-02-21T06:13:44;8.70;;;2.67;;
78209;SDS011;67485;48.816;9.930;2024-02-21T06:16:10;5.93;;;2.43;;
78209;SDS011;67485;48.816;9.930;2024-02-21T06:18:36;10.93;;;3.10;;
78209;SDS011;67485;48.816;9.930;2024-02-21T06:21:04;6.20;;;2.42;;
78209;SDS011;67485;48.816;9.930;2024-02-21T06:23:30;11.10;;;2.50;;
78209;SDS011;67485;48.816;9.930;2024-02-21T06:25:55;8.50;;;2.67;;
78209;SDS011;67485;48.816;9.930;2024-02-21T06:28:21;8.50;;;2.70;;
78209;SDS011;67485;48.816;9.930;2024-02-21T06:30:47;6.33;;;2.50;;
78209;SDS011;67485;48.816;9.930;2024-02-21T06:33:12;6.73;;;2.60;;
78209;SDS011;67485;48.816;9.930;2024-02-21T06:35:38;7.53;;;2.78;;
78209;SDS011;67485;48.816;9.930;2024-02-21T06:38:06;8.98;;;3.08;;
78209;SDS011;67485;48.816;9.930;2024-02-21T06:40:32;9.43;;;2.93;;
78209;SDS011;67485;48.816;9.930;2024-02-21T06:43:03;8.27;;;3.08;;
78209;SDS011;67485;48.816;9.930;2024-02-21T06:45:30;9.93;;;3.15;;
78209;SDS011;67485;48.816;9.930;2024-02-21T06:47:55;8.73;;;3.47;;
78209;SDS011;67485;48.816;9.930;2024-02-21T06:50:21;8.82;;;3.22;;
78209;SDS011;67485;48.816;9.930;2024-02-21T06:52:47;11.47;;;3.60;;
78209;SDS011;67485;48.816;9.930;2024-02-21T06:55:12;9.27;;;4.00;;
78209;SDS011;67485;48.816;9.930;2024-02-21T06:57:38;5.67;;;3.30;;
78209;SDS011;67485;48.816;9.930;2024-02-21T07:00:04;5.47;;;2.90;;
78209;SDS011;67485;48.816;9.930;2024-02-21T07:02:33;9.60;;;3.47;;
78209;SDS011;67485;48.816;9.930;2024-02-21T07:04:59;7.63;;;3.42;;
78209;SDS011;67485;48.816;9.930;2024-02-21T07:07:25;8.27;;;3.28;;
78209;SDS011;67485;48.816;9.930;2024-02-21T07:09:50;10.80;;;3.17;;
78209;SDS011;67485;48.816;9.930;2024-02-21T07:12:16;6.95;;;2.58;;
78209;SDS011;67485;48.816;9.930;2024-02-21T07:14:42;8.50;;;2.30;;
78209;SDS011;67485;48.816;9.930;2024-02-21T07:17:08;10.98;;;2.72;;
78209;SDS011;67485;48.816;9.930;2024-02-21T07:19:33;10.90;;;3.00;;
78209;SDS011;67485;48.816;9.930;2024-02-21T07:22:00;8.05;;;2.80;;
78209;SDS011;67485;48.816;9.930;2024-02-21T07:24:26;14.17;;;3.00;;
78209;SDS011;67485;48.816;9.930;2024-02-21T07:26:52;8.20;;;3.70;;
78209;SDS011;67485;48.816;9.930;2024-02-21T07:29:18;9.85;;;3.25;;
78209;SDS011;67485;48.816;9.930;2024-02-21T07:31:44;7.40;;;2.93;;
78209;SDS011;67485;48.816;9.930;2024-02-21T07:41:31;5.93;;;2.75;;
78209;SDS011;67485;48.816;9.930;2024-02-21T07:43:59;11.83;;;2.90;;
78209;SDS011;67485;48.816;9.930;2024-02-21T07:46:24;6.78;;;2.33;;
78209;SDS011;67485;48.816;9.930;2024-02-21T07:48:50;7.50;;;2.63;;
78209;SDS011;67485;48.816;9.930;2024-02-21T07:51:16;6.17;;;2.70;;
78209;SDS011;67485;48.816;9.930;2024-02-21T07:53:43;8.38;;;2.38;;
78209;SDS011;67485;48.816;9.930;2024-02-21T07:56:13;6.15;;;2.50;;
78209;SDS011;67485;48.816;9.930;2024-02-21T07:58:40;8.45;;;2.83;;
78209;SDS011;67485;48.816;9.930;2024-02-21T08:01:06;8.47;;;2.73;;
78209;SDS011;67485;48.816;9.930;2024-02-21T08:03:32;7.18;;;2.70;;
78209;SDS011;67485;48.816;9.930;2024-02-21T08:05:58;9.02;;;3.00;;
78209;SDS011;67485;48.816;9.930;2024-02-21T08:08:24;7.20;;;3.03;;
78209;SDS011;67485;48.816;9.930;2024-02-21T08:10:50;8.93;;;3.60;;
78209;SDS011;67485;48.816;9.930;2024-02-21T08:13:16;8.80;;;3.58;;
78209;SDS011;67485;48.816;9.930;2024-02-21T08:15:41;7.40;;;3.20;;
78209;SDS011;67485;48.816;9.930;2024-02-21T08:18:07;10.35;;;3.60;;
78209;SDS011;67485;48.816;9.930;2024-02-21T08:20:33;7.83;;;3.20;;
78209;SDS011;67485;48.816;9.930;2024-02-21T08:22:59;8.48;;;2.88;;
78209;SDS011;67485;48.816;9.930;2024-02-21T08:25:25;7.18;;;3.30;;
78209;SDS011;67485;48.816;9.930;2024-02-21T08:27:51;12.37;;;3.90;;
78209;SDS011;67485;48.816;9.930;2024-02-21T08:30:17;10.63;;;3.70;;
78209;SDS011;67485;48.816;9.930;2024-02-21T08:32:43;9.32;;;3.40;;
78209;SDS011;67485;48.816;9.930;2024-02-21T08:35:08;10.80;;;3.33;;
78209;SDS011;67485;48.816;9.930;2024-02-21T08:37:34;8.48;;;3.25;;
78209;SDS011;67485;48.816;9.930;2024-02-21T08:40:00;8.40;;;2.80;;
78209;SDS011;67485;48.816;9.930;2024-02-21T08:42:33;8.80;;;3.10;;
78209;SDS011;67485;48.816;9.930;2024-02-21T08:45:00;6.85;;;3.30;;
78209;SDS011;67485;48.816;9.930;2024-02-21T08:47:27;7.33;;;2.80;;
78209;SDS011;67485;48.816;9.930;2024-02-21T08:49:52;8.10;;;2.78;;
78209;SDS011;67485;48.816;9.930;2024-02-21T08:52:18;5.33;;;2.57;;
78209;SDS011;67485;48.816;9.930;2024-02-21T08:54:43;8.95;;;2.47;;
78209;SDS011;67485;48.816;9.930;2024-02-21T08:57:09;6.53;;;2.60;;
78209;SDS011;67485;48.816;9.930;2024-02-21T08:59:35;8.10;;;2.63;;
78209;SDS011;67485;48.816;9.930;2024-02-21T09:02:00;11.57;;;3.27;;
78209;SDS011;67485;48.816;9.930;2024-02-21T09:04:28;10.00;;;3.38;;
78209;SDS011;67485;48.816;9.930;2024-02-21T09:06:53;6.87;;;2.60;;
78209;SDS011;67485;48.816;9.930;2024-02-21T09:09:19;8.38;;;2.38;;
78209;SDS011;67485;48.816;9.930;2024-02-21T09:11:45;10.23;;;2.73;;
78209;SDS011;67485;48.816;9.930;2024-02-21T09:14:10;5.97;;;2.30;;
78209;SDS011;67485;48.816;9.930;2024-02-21T09:16:37;8.23;;;2.65;;
78209;SDS011;67485;48.816;9.930;2024-02-21T09:19:03;9.10;;;2.20;;
78209;SDS011;67485;48.816;9.930;2024-02-21T09:21:28;6.13;;;1.77;;
78209;SDS011;67485;48.816;9.930;2024-02-21T09:23:54;6.63;;;1.60;;
78209;SDS011;67485;48.816;9.930;2024-02-21T09:26:20;7.78;;;1.90;;
78209;SDS011;67485;48.816;9.930;2024-02-21T09:28:46;9.40;;;2.33;;
78209;SDS011;67485;48.816;9.930;2024-02-21T09:31:11;5.57;;;1.67;;
78209;SDS011;67485;48.816;9.930;2024-02-21T09:33:37;7.90;;;1.67;;
78209;SDS011;67485;48.816;9.930;2024-02-21T09:36:03;5.80;;;1.73;;
78209;SDS011;67485;48.816;9.930;2024-02-21T09:38:31;4.60;;;1.58;;
78209;SDS011;67485;48.816;9.930;2024-02-21T09:41:03;5.15;;;1.80;;
78209;SDS011;67485;48.816;9.930;2024-02-21T09:43:40;5.50;;;1.43;;
78209;SDS011;67485;48.816;9.930;2024-02-21T09:46:07;8.05;;;2.15;;
78209;SDS011;67485;48.816;9.930;2024-02-21T09:51:29;2.92;;;1.13;;
78209;SDS011;67485;48.816;9.930;2024-02-21T09:53:57;8.30;;;1.77;;
78209;SDS011;67485;48.816;9.930;2024-02-21T09:56:24;6.50;;;1.57;;
78209;SDS011;67485;48.816;9.930;2024-02-21T09:58:50;5.20;;;1.15;;
78209;SDS011;67485;48.816;9.930;2024-02-21T10:01:16;5.93;;;1.67;;
78209;SDS011;67485;48.816;9.930;2024-02-21T10:03:42;4.95;;;1.20;;
78209;SDS011;67485;48.816;9.930;2024-02-21T10:06:09;4.88;;;1.10;;
78209;SDS011;67485;48.816;9.930;2024-02-21T10:08:34;7.07;;;1.43;;
78209;SDS011;67485;48.816;9.930;2024-02-21T10:11:00;8.90;;;1.42;;
78209;SDS011;67485;48.816;9.930;2024-02-21T10:13:28;6.53;;;1.00;;
78209;SDS011;67485;48.816;9.930;2024-02-21T10:16:05;7.28;;;1.15;;
78209;SDS011;67485;48.816;9.930;2024-02-21T10:18:34;4.07;;;1.00;;
78209;SDS011;67485;48.816;9.930;2024-02-21T10:21:00;3.67;;;0.90;;
78209;SDS011;67485;48.816;9.930;2024-02-21T10:23:27;4.30;;;1.40;;
78209;SDS011;67485;48.816;9.930;2024-02-21T10:25:53;6.33;;;1.10;;
78209;SDS011;67485;48.816;9.930;2024-02-21T10:28:18;2.27;;;0.90;;
78209;SDS011;67485;48.816;9.930;2024-02-21T10:30:51;5.07;;;1.52;;
78209;SDS011;67485;48.816;9.930;2024-02-21T10:33:17;5.53;;;1.30;;
78209;SDS011;67485;48.816;9.930;2024-02-21T10:35:46;4.40;;;1.00;;
78209;SDS011;67485;48.816;9.930;2024-02-21T10:38:12;5.68;;;1.35;;
78209;SDS011;67485;48.816;9.930;2024-02-21T10:40:38;5.55;;;1.48;;
78209;SDS011;67485;48.816;9.930;2024-02-21T10:43:03;3.27;;;1.40;;
78209;SDS011;67485;48.816;9.930;2024-02-21T10:45:34;7.20;;;1.50;;
78209;SDS011;67485;48.816;9.930;2024-02-21T10:48:10;4.47;;;1.23;;
78209;SDS011;67485;48.816;9.930;2024-02-21T10:50:57;8.48;;;1.30;;
78209;SDS011;67485;48.816;9.930;2024-02-21T10:56:29;4.20;;;1.20;;
78209;SDS011;67485;48.816;9.930;2024-02-21T10:59:03;6.68;;;1.40;;
78209;SDS011;67485;48.816;9.930;2024-02-21T11:01:31;6.10;;;1.30;;
78209;SDS011;67485;48.816;9.930;2024-02-21T11:03:58;6.00;;;1.60;;
78209;SDS011;67485;48.816;9.930;2024-02-21T11:06:26;4.97;;;1.27;;
78209;SDS011;67485;48.816;9.930;2024-02-21T11:09:09;4.40;;;1.10;;
78209;SDS011;67485;48.816;9.930;2024-02-21T11:11:37;6.18;;;1.30;;
78209;SDS011;67485;48.816;9.930;2024-02-21T11:14:26;4.35;;;1.42;;
78209;SDS011;67485;48.816;9.930;2024-02-21T11:16:51;7.57;;;1.35;;
78209;SDS011;67485;48.816;9.930;2024-02-21T11:19:24;5.67;;;1.33;;
78209;SDS011;67485;48.816;9.930;2024-02-21T11:21:51;5.20;;;1.27;;
78209;SDS011;67485;48.816;9.930;2024-02-21T11:27:09;5.82;;;1.60;;
78209;SDS011;67485;48.816;9.930;2024-02-21T11:29:40;4.60;;;1.55;;
78209;SDS011;67485;48.816;9.930;2024-02-21T11:32:10;4.03;;;1.50;;
78209;SDS011;67485;48.816;9.930;2024-02-21T11:34:40;3.88;;;1.10;;
78209;SDS011;67485;48.816;9.930;2024-02-21T11:37:15;4.70;;;1.60;;
78209;SDS011;67485;48.816;9.930;2024-02-21T11:39:41;3.22;;;1.30;;
78209;SDS011;67485;48.816;9.930;2024-02-21T11:42:07;4.00;;;1.40;;
78209;SDS011;67485;48.816;9.930;2024-02-21T11:44:34;6.27;;;1.37;;
78209;SDS011;67485;48.816;9.930;2024-02-21T11:47:03;4.68;;;1.25;;
78209;SDS011;67485;48.816;9.930;2024-02-21T11:49:29;6.82;;;1.60;;
78209;SDS011;67485;48.816;9.930;2024-02-21T11:51:59;3.75;;;1.10;;
78209;SDS011;67485;48.816;9.930;2024-02-21T11:54:29;4.10;;;1.13;;
78209;SDS011;67485;48.816;9.930;2024-02-21T11:56:56;4.30;;;1.20;;
78209;SDS011;67485;48.816;9.930;2024-02-21T11:59:21;5.72;;;1.23;;
78209;SDS011;67485;48.816;9.930;2024-02-21T12:01:50;5.22;;;1.33;;
78209;SDS011;67485;48.816;9.930;2024-02-21T12:04:17;6.20;;;1.40;;
78209;SDS011;67485;48.816;9.930;2024-02-21T12:06:45;3.30;;;1.33;;
78209;SDS011;67485;48.816;9.930;2024-02-21T12:09:14;4.97;;;1.25;;
78209;SDS011;67485;48.816;9.930;2024-02-21T12:11:43;4.68;;;1.30;;
78209;SDS011;67485;48.816;9.930;2024-02-21T12:14:10;3.30;;;1.10;;
78209;SDS011;67485;48.816;9.930;2024-02-21T12:16:36;4.80;;;1.10;;
78209;SDS011;67485;48.816;9.930;2024-02-21T12:19:02;4.27;;;1.30;;
78209;SDS011;67485;48.816;9.930;2024-02-21T12:21:31;3.97;;;1.25;;
78209;SDS011;67485;48.816;9.930;2024-02-21T12:24:00;7.30;;;1.35;;
78209;SDS011;67485;48.816;9.930;2024-02-21T12:26:25;5.45;;;1.75;;
78209;SDS011;67485;48.816;9.930;2024-02-21T12:28:53;4.80;;;1.43;;
78209;SDS011;67485;48.816;9.930;2024-02-21T12:31:20;3.15;;;1.40;;
78209;SDS011;67485;48.816;9.930;2024-02-21T12:33:47;3.92;;;1.05;;
78209;SDS011;67485;48.816;9.930;2024-02-21T12:36:13;6.53;;;1.30;;
78209;SDS011;67485;48.816;9.930;2024-02-21T12:38:40;3.78;;;1.20;;
78209;SDS011;67485;48.816;9.930;2024-02-21T12:41:05;3.67;;;1.37;;
78209;SDS011;67485;48.816;9.930;2024-02-21T12:43:32;5.35;;;1.40;;
78209;SDS011;67485;48.816;9.930;2024-02-21T12:45:59;4.20;;;1.33;;
78209;SDS011;67485;48.816;9.930;2024-02-21T12:48:25;4.33;;;1.00;;
78209;SDS011;67485;48.816;9.930;2024-02-21T12:50:50;4.20;;;0.97;;
78209;SDS011;67485;48.816;9.930;2024-02-21T12:53:19;3.92;;;0.93;;
78209;SDS011;67485;48.816;9.930;2024-02-21T12:55:47;3.78;;;1.25;;
78209;SDS011;67485;48.816;9.930;2024-02-21T12:58:13;6.53;;;1.35;;
78209;SDS011;67485;48.816;9.930;2024-02-21T13:00:40;5.00;;;1.13;;
78209;SDS011;67485;48.816;9.930;2024-02-21T13:03:06;5.90;;;1.30;;
78209;SDS011;67485;48.816;9.930;2024-02-21T13:05:32;5.10;;;1.27;;
78209;SDS011;67485;48.816;9.930;2024-02-21T13:07:58;4.57;;;1.20;;
78209;SDS011;67485;48.816;9.930;2024-02-21T13:10:24;4.43;;;1.50;;
78209;SDS011;67485;48.816;9.930;2024-02-21T13:12:50;4.13;;;1.00;;
78209;SDS011;67485;48.816;9.930;2024-02-21T13:15:16;5.15;;;1.20;;
78209;SDS011;67485;48.816;9.930;2024-02-21T13:17:43;3.40;;;1.23;;
78209;SDS011;67485;48.816;9.930;2024-02-21T13:20:10;6.17;;;1.43;;
78209;SDS011;67485;48.816;9.930;2024-02-21T13:22:36;3.63;;;1.00;;
78209;SDS011;67485;48.816;9.930;2024-02-21T13:25:02;2.17;;;1.08;;
78209;SDS011;67485;48.816;9.930;2024-02-21T13:27:28;4.35;;;1.40;;
78209;SDS011;67485;48.816;9.930;2024-02-21T13:29:54;5.97;;;1.30;;
78209;SDS011;67485;48.816;9.930;2024-02-21T13:32:20;3.10;;;1.10;;
78209;SDS011;67485;48.816;9.930;2024-02-21T13:34:45;6.80;;;1.50;;
78209;SDS011;67485;48.816;9.930;2024-02-21T13:37:11;7.70;;;1.17;;
78209;SDS011;67485;48.816;9.930;2024-02-21T13:39:37;4.33;;;1.10;;
78209;SDS011;67485;48.816;9.930;2024-02-21T13:42:02;3.05;;;1.30;;
78209;SDS011;67485;48.816;9.930;2024-02-21T13:44:31;3.33;;;1.10;;
78209;SDS011;67485;48.816;9.930;2024-02-21T13:46:58;3.47;;;1.10;;
78209;SDS011;67485;48.816;9.930;2024-02-21T13:49:24;2.78;;;1.00;;
78209;SDS011;67485;48.816;9.930;2024-02-21T13:51:50;4.23;;;1.00;;
78209;SDS011;67485;48.816;9.930;2024-02-21T13:54:15;4.80;;;1.17;;
78209;SDS011;67485;48.816;9.930;2024-02-21T13:56:44;5.20;;;1.08;;
78209;SDS011;67485;48.816;9.930;2024-02-21T13:59:13;5.50;;;1.20;;
78209;SDS011;67485;48.816;9.930;2024-02-21T14:01:41;3.90;;;1.00;;
78209;SDS011;67485;48.816;9.930;2024-02-21T14:04:08;3.70;;;1.30;;
78209;SDS011;67485;48.816;9.930;2024-02-21T14:06:33;3.83;;;1.10;;
78209;SDS011;67485;48.816;9.930;2024-02-21T14:08:59;5.03;;;1.55;;
78209;SDS011;67485;48.816;9.930;2024-02-21T14:11:25;4.40;;;1.10;;
78209;SDS011;67485;48.816;9.930;2024-02-21T14:13:52;2.60;;;0.90;;
78209;SDS011;67485;48.816;9.930;2024-02-21T14:16:18;8.23;;;1.63;;
78209;SDS011;67485;48.816;9.930;2024-02-21T14:18:43;4.10;;;1.03;;
78209;SDS011;67485;48.816;9.930;2024-02-21T14:21:12;3.92;;;1.15;;
78209;SDS011;67485;48.816;9.930;2024-02-21T14:23:38;3.92;;;1.20;;
78209;SDS011;67485;48.816;9.930;2024-02-21T14:26:04;3.03;;;1.20;;
78209;SDS011;67485;48.816;9.930;2024-02-21T14:28:31;4.45;;;0.90;;
78209;SDS011;67485;48.816;9.930;2024-02-21T14:30:59;3.95;;;1.30;;
78209;SDS011;67485;48.816;9.930;2024-02-21T14:33:28;3.08;;;1.20;;
78209;SDS011;67485;48.816;9.930;2024-02-21T14:35:55;5.45;;;1.23;;
78209;SDS011;67485;48.816;9.930;2024-02-21T14:38:20;4.73;;;1.27;;
78209;SDS011;67485;48.816;9.930;2024-02-21T14:40:46;4.07;;;1.30;;
78209;SDS011;67485;48.816;9.930;2024-02-21T14:43:13;3.77;;;0.90;;
78209;SDS011;67485;48.816;9.930;2024-02-21T14:45:38;4.57;;;1.15;;
78209;SDS011;67485;48.816;9.930;2024-02-21T14:48:05;4.18;;;1.30;;
78209;SDS011;67485;48.816;9.930;2024-02-21T14:50:31;8.93;;;1.08;;
78209;SDS011;67485;48.816;9.930;2024-02-21T14:52:57;5.07;;;1.20;;
78209;SDS011;67485;48.816;9.930;2024-02-21T14:55:22;3.05;;;1.10;;
78209;SDS011;67485;48.816;9.930;2024-02-21T14:57:49;5.90;;;1.40;;